createdAt,value
2023-03-05T00:01:22.875Z,0.80
2023-03-05T00:03:50.220Z,0.73
2023-03-05T00:06:17.522Z,0.65
2023-03-05T00:08:44.364Z,0.74
2023-03-05T00:11:12.979Z,0.77
2023-03-05T00:13:40.050Z,0.73
2023-03-05T00:16:12.193Z,0.68
2023-03-05T00:18:39.157Z,0.65
2023-03-05T00:21:17.302Z,0.67
2023-03-05T00:23:43.982Z,0.68
2023-03-05T00:26:10.673Z,0.63
2023-03-05T00:28:37.293Z,0.76
2023-03-05T00:31:04.117Z,0.67
2023-03-05T00:33:30.735Z,0.58
2023-03-05T00:35:57.837Z,0.60
2023-03-05T00:38:24.435Z,0.52
2023-03-05T00:40:51.519Z,0.51
2023-03-05T00:43:18.163Z,0.59
2023-03-05T00:45:44.769Z,0.61
2023-03-05T00:48:11.351Z,0.51
2023-03-05T00:50:37.978Z,0.34
2023-03-05T00:53:04.621Z,0.43
2023-03-05T00:55:31.243Z,0.30
2023-03-05T00:57:57.882Z,0.30
2023-03-05T01:00:24.648Z,0.31
2023-03-05T01:02:51.426Z,0.38
2023-03-05T01:05:18.167Z,0.34
2023-03-05T01:07:44.910Z,0.31
2023-03-05T01:10:12.799Z,0.28
2023-03-05T01:12:40.060Z,0.27
2023-03-05T01:15:07.337Z,0.16
2023-03-05T01:17:34.648Z,0.24
2023-03-05T01:20:01.349Z,0.35
2023-03-05T01:22:27.978Z,0.38
2023-03-05T01:24:54.582Z,0.47
2023-03-05T01:27:21.214Z,0.53
2023-03-05T01:29:47.810Z,0.53
2023-03-05T01:32:14.705Z,0.68
2023-03-05T01:34:42.058Z,0.66
2023-03-05T01:37:09.555Z,0.61
2023-03-05T01:39:36.461Z,0.61
2023-03-05T01:42:04.306Z,0.63
2023-03-05T01:44:32.447Z,0.62
2023-03-05T01:46:59.038Z,0.77
2023-03-05T01:49:25.598Z,0.82
2023-03-05T01:52:01.196Z,0.88
2023-03-05T01:54:39.216Z,0.97
2023-03-05T01:57:26.037Z,0.98
2023-03-05T02:00:00.858Z,1.03
2023-03-05T02:02:27.536Z,0.96
2023-03-05T02:05:06.735Z,0.93
2023-03-05T02:07:37.295Z,0.94
2023-03-05T02:10:17.482Z,1.04
2023-03-05T02:12:44.187Z,0.99
2023-03-05T02:15:12.219Z,1.02
2023-03-05T02:17:39.077Z,0.92
2023-03-05T02:20:15.932Z,0.98
2023-03-05T02:22:42.550Z,1.13
2023-03-05T02:25:21.749Z,1.19
2023-03-05T02:28:00.250Z,1.05
2023-03-05T02:30:26.918Z,1.16
2023-03-05T02:32:53.521Z,1.16
2023-03-05T02:35:20.390Z,1.19
2023-03-05T02:37:47.031Z,1.22
2023-03-05T02:40:14.273Z,1.17
2023-03-05T02:42:41.690Z,1.22
2023-03-05T02:45:09.813Z,1.23
2023-03-05T02:47:36.784Z,1.24
2023-03-05T02:50:04.809Z,1.30
2023-03-05T02:52:31.906Z,1.39
2023-03-05T02:54:58.817Z,1.34
2023-03-05T02:57:25.581Z,1.41
2023-03-05T02:59:52.272Z,1.41
2023-03-05T03:02:19.256Z,1.48
2023-03-05T03:04:46.093Z,1.53
2023-03-05T03:07:13.685Z,1.53
2023-03-05T03:09:43.471Z,1.60
2023-03-05T03:12:11.181Z,1.67
2023-03-05T03:14:41.301Z,1.67
2023-03-05T03:17:17.757Z,1.57
2023-03-05T03:19:46.399Z,1.60
2023-03-05T03:22:15.509Z,1.75
2023-03-05T03:24:43.022Z,1.72
2023-03-05T03:27:09.997Z,1.79
2023-03-05T03:29:37.103Z,1.84
2023-03-05T03:32:04.738Z,1.85
2023-03-05T03:34:31.465Z,1.82
2023-03-05T03:36:58.061Z,1.82
2023-03-05T03:39:25.539Z,1.89
2023-03-05T03:41:53.425Z,1.83
2023-03-05T03:44:21.399Z,1.85
2023-03-05T03:46:49.613Z,1.77
2023-03-05T03:49:21.945Z,1.78
2023-03-05T03:51:49.527Z,1.76
2023-03-05T03:54:17.847Z,1.68
2023-03-05T03:56:45.502Z,1.68
2023-03-05T03:59:12.460Z,1.76
2023-03-05T04:01:39.185Z,1.76
2023-03-05T04:04:06.674Z,1.78
2023-03-05T04:06:36.016Z,1.82
2023-03-05T04:09:02.766Z,1.77
2023-03-05T04:11:29.369Z,1.80
2023-03-05T04:13:55.997Z,1.80
2023-03-05T04:16:23.297Z,1.79
2023-03-05T04:18:49.992Z,1.81
2023-03-05T04:21:16.650Z,1.77
2023-03-05T04:23:43.383Z,1.81
2023-03-05T04:26:10.075Z,1.80
2023-03-05T04:28:36.807Z,1.82
2023-03-05T04:31:04.126Z,1.85
2023-03-05T04:33:31.466Z,1.88
2023-03-05T04:35:58.316Z,1.86
2023-03-05T04:38:24.908Z,1.85
2023-03-05T04:40:51.792Z,1.85
2023-03-05T04:43:18.434Z,1.79
2023-03-05T04:45:45.040Z,1.76
2023-03-05T04:48:11.831Z,1.83
2023-03-05T04:50:38.557Z,1.81
2023-03-05T04:53:05.977Z,1.89
2023-03-05T04:55:32.648Z,1.91
2023-03-05T04:57:59.370Z,1.87
2023-03-05T05:00:26.114Z,1.93
2023-03-05T05:02:53.453Z,2.01
2023-03-05T05:05:23.263Z,1.99
2023-03-05T05:07:50.457Z,2.03
2023-03-05T05:10:17.288Z,2.08
2023-03-05T05:12:43.945Z,2.07
2023-03-05T05:15:12.498Z,2.11
2023-03-05T05:17:39.690Z,2.14
2023-03-05T05:20:07.385Z,2.18
2023-03-05T05:22:34.120Z,2.18
2023-03-05T05:25:00.983Z,2.17
2023-03-05T05:27:27.714Z,2.25
2023-03-05T05:29:54.346Z,2.23
2023-03-05T05:32:22.813Z,2.26
2023-03-05T05:34:53.821Z,2.27
2023-03-05T05:37:20.413Z,2.27
2023-03-05T05:39:50.470Z,2.31
2023-03-05T05:42:22.238Z,2.25
2023-03-05T05:44:49.281Z,2.31
2023-03-05T05:47:17.439Z,2.42
2023-03-05T05:49:44.041Z,2.42
2023-03-05T05:52:10.878Z,2.46
2023-03-05T05:54:38.218Z,2.55
2023-03-05T05:57:04.935Z,2.58
2023-03-05T05:59:33.982Z,2.60
2023-03-05T06:02:00.654Z,2.56
2023-03-05T06:04:27.342Z,2.67
2023-03-05T06:06:53.925Z,2.57
2023-03-05T06:09:20.718Z,2.65
2023-03-05T06:11:47.472Z,2.68
2023-03-05T06:14:14.422Z,2.72
2023-03-05T06:16:41.327Z,2.70
2023-03-05T06:19:11.894Z,2.83
2023-03-05T06:21:40.642Z,2.82
2023-03-05T06:24:07.697Z,2.83
2023-03-05T06:26:34.475Z,2.82
2023-03-05T06:29:03.900Z,2.72
2023-03-05T06:31:30.706Z,2.78
2023-03-05T06:34:03.813Z,2.74
2023-03-05T06:36:31.291Z,2.65
2023-03-05T06:38:59.020Z,2.80
2023-03-05T06:41:29.430Z,2.69
2023-03-05T06:43:56.675Z,2.83
2023-03-05T06:46:26.502Z,2.97
2023-03-05T06:48:55.873Z,3.00
2023-03-05T06:51:31.090Z,3.01
2023-03-05T06:54:01.428Z,2.99
2023-03-05T06:56:31.279Z,3.04
2023-03-05T06:59:00.806Z,3.14
2023-03-05T07:01:27.488Z,3.22
2023-03-05T07:03:58.662Z,3.22
2023-03-05T07:06:25.325Z,3.30
2023-03-05T07:08:55.054Z,3.28
2023-03-05T07:11:22.035Z,3.48
2023-03-05T07:13:49.568Z,3.44
2023-03-05T07:16:42.276Z,3.55
2023-03-05T07:19:10.971Z,3.61
2023-03-05T07:21:39.891Z,3.69
2023-03-05T07:24:11.768Z,3.87
2023-03-05T07:26:40.684Z,3.88
2023-03-05T07:29:09.527Z,3.81
2023-03-05T07:31:36.150Z,3.85
2023-03-05T07:34:03.484Z,3.92
2023-03-05T07:36:38.047Z,3.72
2023-03-05T07:39:05.258Z,3.95
2023-03-05T07:41:32.002Z,3.99
2023-03-05T07:43:58.682Z,3.96
2023-03-05T07:46:29.394Z,4.14
2023-03-05T07:48:57.209Z,3.99
2023-03-05T07:51:25.360Z,3.99
2023-03-05T07:53:53.069Z,4.21
2023-03-05T07:56:45.798Z,4.43
2023-03-05T07:59:13.508Z,4.57
2023-03-05T08:03:42.051Z,4.35
2023-03-05T08:05:12.415Z,4.46
2023-03-05T08:07:52.890Z,4.45
2023-03-05T08:10:29.750Z,4.54
2023-03-05T08:13:29.005Z,4.57
2023-03-05T08:15:59.635Z,4.61
2023-03-05T08:18:26.325Z,4.62
2023-03-05T08:20:53.986Z,4.83
2023-03-05T08:23:21.985Z,4.87
2023-03-05T08:25:56.099Z,4.76
2023-03-05T08:28:35.387Z,4.94
2023-03-05T08:31:02.782Z,4.91
2023-03-05T08:33:35.381Z,5.27
2023-03-05T08:36:02.169Z,5.13
2023-03-05T08:38:28.783Z,5.07
2023-03-05T08:40:55.349Z,4.94
2023-03-05T08:43:21.947Z,4.98
2023-03-05T08:45:49.665Z,4.92
2023-03-05T08:48:16.291Z,5.04
2023-03-05T08:50:42.941Z,5.15
2023-03-05T08:53:09.620Z,5.06
2023-03-05T08:55:37.521Z,5.17
2023-03-05T08:58:04.626Z,5.19
2023-03-05T09:00:31.250Z,5.46
2023-03-05T09:02:57.881Z,5.28
2023-03-05T09:05:24.674Z,5.16
2023-03-05T09:07:51.502Z,5.61
2023-03-05T09:10:18.568Z,5.80
2023-03-05T09:12:45.347Z,5.51
2023-03-05T09:15:12.315Z,5.46
2023-03-05T09:17:41.966Z,5.71
2023-03-05T09:20:12.875Z,5.70
2023-03-05T09:22:40.064Z,5.78
2023-03-05T09:25:08.335Z,5.45
2023-03-05T09:27:36.632Z,5.93
2023-03-05T09:30:04.909Z,6.18
2023-03-05T09:32:31.675Z,6.38
2023-03-05T09:34:59.028Z,7.15
2023-03-05T09:37:25.689Z,6.82
2023-03-05T09:39:52.323Z,7.21
2023-03-05T09:42:34.035Z,7.41
2023-03-05T09:45:03.861Z,7.49
2023-03-05T09:47:49.054Z,6.85
2023-03-05T09:50:56.003Z,6.58
2023-03-05T09:53:28.367Z,6.53
2023-03-05T09:55:58.163Z,6.55
2023-03-05T09:58:39.786Z,6.62
2023-03-05T10:01:13.965Z,6.12
2023-03-05T10:04:14.157Z,6.33
2023-03-05T10:07:21.291Z,6.57
2023-03-05T10:10:14.346Z,6.22
2023-03-05T10:12:47.467Z,7.07
2023-03-05T10:15:17.119Z,7.34
2023-03-05T10:18:01.119Z,7.51
2023-03-05T10:20:48.590Z,7.55
2023-03-05T10:23:26.227Z,7.94
2023-03-05T10:25:57.091Z,7.61
2023-03-05T10:28:42.599Z,7.41
2023-03-05T10:31:36.613Z,6.90
2023-03-05T10:34:03.156Z,6.61
2023-03-05T10:36:45.755Z,7.11
2023-03-05T10:39:50.769Z,7.48
2023-03-05T10:42:42.439Z,7.49
2023-03-05T10:45:20.117Z,7.15
2023-03-05T10:47:55.640Z,6.90
2023-03-05T10:50:25.694Z,6.87
2023-03-05T10:53:10.294Z,7.46
2023-03-05T10:55:37.130Z,7.37
2023-03-05T10:58:14.392Z,6.97
2023-03-05T11:00:57.435Z,7.21
2023-03-05T11:03:24.123Z,7.40
2023-03-05T11:06:00.191Z,7.74
2023-03-05T11:08:32.864Z,8.26
2023-03-05T11:11:15.506Z,9.92
2023-03-05T11:13:48.388Z,11.09
2023-03-05T11:16:22.270Z,9.38
2023-03-05T11:18:49.314Z,8.36
2023-03-05T11:21:19.688Z,7.63
2023-03-05T11:24:14.030Z,7.82
2023-03-05T11:26:56.609Z,7.23
2023-03-05T11:29:26.133Z,7.35
2023-03-05T11:31:53.768Z,7.19
2023-03-05T11:34:20.402Z,7.41
2023-03-05T11:36:53.203Z,7.49
2023-03-05T11:39:24.840Z,7.77
2023-03-05T11:41:54.494Z,6.97
2023-03-05T11:44:22.765Z,7.12
2023-03-05T11:47:05.062Z,6.75
2023-03-05T11:49:34.827Z,6.94
2023-03-05T11:52:31.133Z,6.79
2023-03-05T11:55:15.501Z,6.45
2023-03-05T11:57:45.775Z,6.41
2023-03-05T12:00:20.294Z,7.00
2023-03-05T12:02:52.662Z,6.62
2023-03-05T12:05:20.697Z,6.92
2023-03-05T12:07:50.700Z,8.26
2023-03-05T12:10:20.836Z,8.58
2023-03-05T12:13:05.484Z,8.22
2023-03-05T12:15:47.744Z,8.20
2023-03-05T12:19:13.171Z,7.84
2023-03-05T12:21:42.091Z,8.52
2023-03-05T12:24:24.836Z,8.40
2023-03-05T12:26:53.162Z,8.20
2023-03-05T12:29:33.199Z,7.81
2023-03-05T12:32:01.230Z,7.62
2023-03-05T12:34:39.804Z,8.01
2023-03-05T12:37:12.464Z,8.31
2023-03-05T12:39:45.302Z,7.53
2023-03-05T12:42:30.402Z,7.24
2023-03-05T12:45:12.410Z,6.86
2023-03-05T12:47:40.782Z,7.34
2023-03-05T12:50:28.609Z,7.27
2023-03-05T12:53:11.446Z,8.39
2023-03-05T12:55:49.356Z,7.56
2023-03-05T12:58:27.515Z,7.91
2023-03-05T13:01:04.439Z,7.27
2023-03-05T13:03:35.165Z,7.11
2023-03-05T13:06:04.184Z,7.47
2023-03-05T13:08:35.521Z,8.59
2023-03-05T13:11:08.811Z,8.81
2023-03-05T13:13:41.244Z,9.45
2023-03-05T13:16:18.923Z,8.65
2023-03-05T13:18:48.062Z,8.03
2023-03-05T13:21:17.339Z,7.42
2023-03-05T13:23:58.304Z,7.14
2023-03-05T13:26:44.583Z,6.98
2023-03-05T13:29:20.172Z,7.06
2023-03-05T13:31:48.382Z,7.05
2023-03-05T13:34:25.416Z,6.84
2023-03-05T13:37:07.505Z,6.79
2023-03-05T13:39:40.815Z,6.74
2023-03-05T13:42:17.032Z,6.72
2023-03-05T13:44:43.880Z,6.58
2023-03-05T13:47:20.063Z,6.40
2023-03-05T13:49:47.360Z,6.22
2023-03-05T13:52:32.115Z,6.32
2023-03-05T13:54:59.722Z,6.29
2023-03-05T13:57:39.962Z,6.53
2023-03-05T14:00:25.613Z,6.92
2023-03-05T14:02:54.741Z,6.76
2023-03-05T14:05:21.764Z,6.82
2023-03-05T14:07:52.472Z,6.83
2023-03-05T14:10:25.061Z,6.71
2023-03-05T14:12:51.884Z,6.82
2023-03-05T14:15:22.993Z,6.58
2023-03-05T14:17:50.283Z,6.36
2023-03-05T14:20:24.681Z,6.16
2023-03-05T14:22:57.609Z,5.70
2023-03-05T14:25:39.730Z,5.57
2023-03-05T14:28:18.720Z,5.50
2023-03-05T14:30:50.695Z,5.33
2023-03-05T14:33:47.639Z,5.25
2023-03-05T14:36:14.467Z,5.26
2023-03-05T14:38:43.063Z,5.22
2023-03-05T14:41:39.356Z,5.18
2023-03-05T14:44:12.608Z,5.19
2023-03-05T14:46:39.360Z,5.13
2023-03-05T14:49:06.042Z,5.17
2023-03-05T14:51:37.513Z,5.20
2023-03-05T14:54:04.397Z,5.31
2023-03-05T14:56:31.040Z,5.38
2023-03-05T14:58:58.421Z,5.37
2023-03-05T15:01:25.974Z,5.54
2023-03-05T15:03:52.624Z,5.61
2023-03-05T15:06:26.302Z,5.37
2023-03-05T15:08:53.387Z,5.54
2023-03-05T15:11:22.653Z,5.41
2023-03-05T15:13:52.327Z,5.28
2023-03-05T15:16:19.945Z,5.21
2023-03-05T15:18:46.680Z,5.31
2023-03-05T15:21:13.503Z,5.22
2023-03-05T15:23:40.116Z,5.05
2023-03-05T15:26:08.910Z,5.03
2023-03-05T15:28:37.799Z,5.03
2023-03-05T15:31:06.825Z,5.00
2023-03-05T15:33:35.248Z,4.91
2023-03-05T15:36:02.511Z,4.99
2023-03-05T15:38:29.124Z,4.99
2023-03-05T15:40:56.992Z,4.90
2023-03-05T15:43:23.708Z,4.84
2023-03-05T15:45:50.375Z,4.73
2023-03-05T15:48:16.961Z,4.83
2023-03-05T15:50:44.021Z,4.72
2023-03-05T15:53:15.657Z,4.85
2023-03-05T15:55:46.188Z,4.63
2023-03-05T15:58:16.711Z,4.69
2023-03-05T16:00:44.175Z,4.51
2023-03-05T16:03:11.251Z,4.38
2023-03-05T16:05:38.693Z,4.44
2023-03-05T16:08:06.452Z,4.41
2023-03-05T16:10:33.574Z,4.40
2023-03-05T16:13:11.600Z,4.36
2023-03-05T16:15:41.129Z,4.27
2023-03-05T16:18:15.465Z,4.24
2023-03-05T16:20:42.413Z,4.18
2023-03-05T16:23:09.087Z,4.08
2023-03-05T16:25:36.685Z,4.00
2023-03-05T16:28:03.330Z,3.89
2023-03-05T16:30:30.457Z,3.87
2023-03-05T16:32:57.104Z,3.70
2023-03-05T16:35:23.756Z,3.66
2023-03-05T16:37:50.580Z,3.59
2023-03-05T16:40:17.404Z,3.49
2023-03-05T16:42:44.385Z,3.45
2023-03-05T16:45:12.316Z,3.50
2023-03-05T16:47:39.858Z,3.49
2023-03-05T16:50:08.501Z,3.48
2023-03-05T16:52:35.804Z,3.36
2023-03-05T16:55:02.386Z,3.27
2023-03-05T16:57:29.027Z,3.21
2023-03-05T16:59:56.696Z,3.16
2023-03-05T17:02:23.590Z,3.06
2023-03-05T17:04:50.519Z,3.06
2023-03-05T17:07:17.976Z,2.98
2023-03-05T17:09:44.734Z,2.89
2023-03-05T17:12:11.469Z,2.77
2023-03-05T17:14:38.190Z,2.71
2023-03-05T17:17:04.785Z,2.52
2023-03-05T17:19:32.131Z,2.71
2023-03-05T17:21:58.796Z,2.84
2023-03-05T17:24:25.431Z,2.77
2023-03-05T17:26:52.046Z,2.82
2023-03-05T17:29:19.680Z,2.90
2023-03-05T17:31:46.835Z,2.71
2023-03-05T17:34:14.400Z,2.71
2023-03-05T17:36:41.055Z,2.61
2023-03-05T17:39:08.785Z,2.65
2023-03-05T17:41:36.051Z,2.57
2023-03-05T17:44:03.471Z,2.45
2023-03-05T17:46:30.353Z,2.39
2023-03-05T17:48:56.965Z,2.33
2023-03-05T17:51:23.553Z,2.33
2023-03-05T17:53:53.289Z,2.21
2023-03-05T17:56:22.094Z,2.17
2023-03-05T17:58:49.937Z,2.11
2023-03-05T18:01:28.533Z,2.13
2023-03-05T18:03:56.394Z,2.16
2023-03-05T18:06:23.225Z,2.14
2023-03-05T18:08:50.068Z,2.08
2023-03-05T18:11:17.308Z,1.91
2023-03-05T18:13:44.212Z,2.04
2023-03-05T18:16:11.523Z,2.22
2023-03-05T18:18:38.225Z,2.16
2023-03-05T18:21:04.972Z,2.18
2023-03-05T18:23:31.601Z,2.13
2023-03-05T18:25:58.238Z,2.18
2023-03-05T18:28:25.927Z,2.13
2023-03-05T18:30:52.658Z,2.01
2023-03-05T18:33:24.715Z,2.05
2023-03-05T18:35:52.806Z,2.01
2023-03-05T18:38:24.128Z,2.05
2023-03-05T18:40:51.995Z,1.93
2023-03-05T18:43:20.700Z,2.06
2023-03-05T18:45:53.361Z,2.15
2023-03-05T18:48:23.410Z,2.17
2023-03-05T18:50:52.688Z,2.09
2023-03-05T18:53:20.143Z,2.04
2023-03-05T18:55:46.797Z,2.12
2023-03-05T18:58:17.573Z,1.95
2023-03-05T19:00:47.744Z,1.90
2023-03-05T19:03:15.876Z,1.84
2023-03-05T19:05:43.190Z,1.78
2023-03-05T19:08:10.295Z,1.68
2023-03-05T19:10:37.101Z,1.70
2023-03-05T19:13:39.709Z,1.67
2023-03-05T19:16:08.680Z,1.57
2023-03-05T19:18:54.012Z,1.50
2023-03-05T19:21:20.600Z,1.41
2023-03-05T19:23:47.160Z,1.21
2023-03-05T19:26:13.757Z,1.07
2023-03-05T19:28:40.348Z,0.92
2023-03-05T19:31:07.132Z,1.03
2023-03-05T19:33:33.823Z,0.91
2023-03-05T19:36:00.491Z,0.85
2023-03-05T19:38:30.160Z,0.84
2023-03-05T19:40:59.236Z,0.73
2023-03-05T19:43:28.263Z,0.62
2023-03-05T19:46:01.816Z,0.38
2023-03-05T19:48:28.601Z,0.47
2023-03-05T19:50:55.228Z,0.41
2023-03-05T19:53:21.844Z,0.52
2023-03-05T19:55:48.400Z,0.45
2023-03-05T19:58:15.019Z,0.28
2023-03-05T20:00:41.630Z,0.42
2023-03-05T20:03:08.301Z,0.53
2023-03-05T20:05:38.729Z,0.26
2023-03-05T20:08:05.375Z,0.27
2023-03-05T20:10:32.317Z,0.18
2023-03-05T20:12:58.934Z,0.04
2023-03-05T20:15:29.297Z,0.11
2023-03-05T20:17:57.364Z,0.00
2023-03-05T20:20:24.563Z,-0.06
2023-03-05T20:22:51.293Z,-0.02
2023-03-05T20:25:21.285Z,-0.20
2023-03-05T20:27:48.143Z,-0.28
2023-03-05T20:30:16.202Z,-0.28
2023-03-05T20:32:42.962Z,-0.22
2023-03-05T20:35:14.339Z,-0.28
2023-03-05T20:38:20.861Z,-0.08
2023-03-05T20:40:49.178Z,-0.11
2023-03-05T20:43:16.727Z,0.14
2023-03-05T20:45:43.311Z,0.19
2023-03-05T20:48:10.219Z,0.16
2023-03-05T20:50:37.064Z,0.13
2023-03-05T20:53:04.174Z,0.21
2023-03-05T20:55:32.612Z,0.29
2023-03-05T20:57:59.383Z,0.53
2023-03-05T21:00:26.822Z,0.68
2023-03-05T21:02:55.366Z,0.75
2023-03-05T21:05:27.769Z,0.71
2023-03-05T21:07:55.129Z,0.74
2023-03-05T21:10:22.196Z,0.71
2023-03-05T21:12:50.716Z,0.73
2023-03-05T21:15:20.592Z,0.80
2023-03-05T21:17:47.501Z,0.82
2023-03-05T21:20:17.616Z,0.92
2023-03-05T21:22:44.295Z,0.93
2023-03-05T21:25:21.132Z,0.95
2023-03-05T21:28:05.120Z,0.91
2023-03-05T21:30:38.655Z,0.98
2023-03-05T21:33:09.769Z,1.00
2023-03-05T21:35:37.319Z,1.01
2023-03-05T21:38:05.345Z,1.07
2023-03-05T21:40:33.202Z,1.14
2023-03-05T21:43:00.039Z,1.24
2023-03-05T21:45:28.955Z,1.25
2023-03-05T21:47:56.654Z,1.20
2023-03-05T21:50:24.520Z,1.18
2023-03-05T21:52:52.170Z,1.23
2023-03-05T21:55:33.038Z,1.33
2023-03-05T21:58:00.456Z,1.38
2023-03-05T22:00:28.235Z,1.38
2023-03-05T22:02:55.010Z,1.38
2023-03-05T22:05:21.672Z,1.32
2023-03-05T22:07:48.274Z,1.34
2023-03-05T22:10:18.585Z,1.40
2023-03-05T22:13:10.462Z,1.43
2023-03-05T22:15:52.470Z,1.40
2023-03-05T22:18:21.784Z,1.38
2023-03-05T22:20:48.690Z,1.27
2023-03-05T22:23:15.871Z,1.36
2023-03-05T22:25:43.343Z,1.34
2023-03-05T22:28:12.468Z,1.34
2023-03-05T22:30:45.519Z,1.39
2023-03-05T22:33:12.956Z,1.48
2023-03-05T22:35:41.305Z,1.30
2023-03-05T22:38:11.604Z,1.32
2023-03-05T22:40:43.253Z,1.38
2023-03-05T22:43:10.512Z,1.20
2023-03-05T22:45:37.481Z,1.05
2023-03-05T22:48:04.459Z,1.04
2023-03-05T22:50:31.218Z,1.04
2023-03-05T22:52:57.975Z,1.13
2023-03-05T22:55:24.574Z,1.15
2023-03-05T22:57:51.286Z,1.06
2023-03-05T23:00:23.522Z,1.00
2023-03-05T23:02:51.463Z,0.98
2023-03-05T23:05:19.033Z,1.02
2023-03-05T23:07:45.925Z,1.05
2023-03-05T23:10:16.953Z,1.12
2023-03-05T23:12:46.470Z,1.16
2023-03-05T23:15:16.324Z,1.18
2023-03-05T23:17:47.375Z,1.22
2023-03-05T23:20:16.962Z,1.29
2023-03-05T23:22:45.081Z,1.24
2023-03-05T23:25:13.561Z,1.14
2023-03-05T23:27:40.990Z,1.12
2023-03-05T23:30:21.067Z,1.16
2023-03-05T23:32:49.803Z,1.23
2023-03-05T23:35:23.603Z,1.28
2023-03-05T23:37:50.761Z,1.24
2023-03-05T23:40:23.844Z,1.19
2023-03-05T23:42:50.617Z,1.24
2023-03-05T23:45:18.928Z,1.25
2023-03-05T23:47:48.249Z,1.19
2023-03-05T23:50:23.287Z,1.21
2023-03-05T23:52:50.899Z,1.19
2023-03-05T23:55:42.141Z,1.24
2023-03-05T23:58:09.490Z,1.25
